Time,TemperatureF,DewpointF,PressureIn,WindDirection,WindDirectionDegrees,WindSpeedMPH,WindSpeedGustMPH,Humidity,HourlyPrecipIn,Conditions,Clouds,dailyrainin,SoftwareType,DateUTC
2018-01-19 00:04:00,36.2,22.0,30.14,SW,235,5.6,7.4,60,0.00,,,0.00,TxWx,2018-01-19 06:04:00,
2018-01-19 00:09:00,36.0,23.0,30.14,SSE,167,5.6,7.4,61,0.00,,,0.00,TxWx,2018-01-19 06:09:00,
2018-01-19 00:15:00,36.2,22.0,30.14,SSW,212,9.3,10.5,60,0.00,,,0.00,TxWx,2018-01-19 06:15:00,
2018-01-19 00:20:00,36.3,22.0,30.14,SSW,212,4.3,7.4,59,0.00,,,0.00,TxWx,2018-01-19 06:20:00,
2018-01-19 00:25:00,36.3,22.0,30.14,East,100,3.1,6.8,59,0.00,,,0.00,TxWx,2018-01-19 06:25:00,
2018-01-19 00:30:00,36.4,22.0,30.14,SSW,212,4.3,8.7,59,0.00,,,0.00,TxWx,2018-01-19 06:30:00,
2018-01-19 00:35:00,36.3,22.0,30.14,SW,235,3.1,7.4,59,0.00,,,0.00,TxWx,2018-01-19 06:35:00,
2018-01-19 00:40:00,36.3,22.0,30.13,SW,235,3.1,6.8,59,0.00,,,0.00,TxWx,2018-01-19 06:40:00,
2018-01-19 00:45:00,36.3,22.0,30.13,South,190,1.9,5.6,59,0.00,,,0.00,TxWx,2018-01-19 06:45:00,
2018-01-19 00:50:00,36.3,22.0,30.13,WSW,257,5.0,8.0,59,0.00,,,0.00,TxWx,2018-01-19 06:50:00,
2018-01-19 00:55:00,36.3,22.0,30.13,SSW,212,7.4,8.7,58,0.00,,,0.00,TxWx,2018-01-19 06:55:00,
2018-01-19 01:01:00,36.2,22.0,30.13,South,190,4.3,7.4,59,0.00,,,0.00,TxWx,2018-01-19 07:01:00,
2018-01-19 01:06:00,36.3,22.0,30.13,SW,235,3.1,6.2,59,0.00,,,0.00,TxWx,2018-01-19 07:06:00,
2018-01-19 01:12:00,36.2,22.0,30.12,South,190,5.0,8.7,59,0.00,,,0.00,TxWx,2018-01-19 07:12:00,
2018-01-19 01:17:00,36.2,22.0,30.12,SSW,212,5.0,9.9,59,0.00,,,0.00,TxWx,2018-01-19 07:17:00,
2018-01-19 01:22:00,36.3,22.0,30.12,WSW,257,4.3,9.3,58,0.00,,,0.00,TxWx,2018-01-19 07:22:00,
2018-01-19 01:27:00,36.2,22.0,30.11,SW,235,5.0,6.8,59,0.00,,,0.00,TxWx,2018-01-19 07:27:00,
2018-01-19 01:32:00,36.2,22.0,30.11,South,190,5.6,6.8,59,0.00,,,0.00,TxWx,2018-01-19 07:32:00,
2018-01-19 01:38:00,36.2,22.0,30.10,SW,235,5.0,7.4,58,0.00,,,0.00,TxWx,2018-01-19 07:38:00,
2018-01-19 01:43:00,35.9,22.0,30.10,WSW,257,3.7,5.0,59,0.00,,,0.00,TxWx,2018-01-19 07:43:00,
2018-01-19 01:48:00,35.8,22.0,30.10,South,190,5.0,6.2,59,0.00,,,0.00,TxWx,2018-01-19 07:48:00,
2018-01-19 01:53:00,35.9,22.0,30.11,SSE,167,4.3,9.3,59,0.00,,,0.00,TxWx,2018-01-19 07:53:00,
2018-01-19 01:58:00,35.9,22.0,30.11,SW,235,4.3,8.7,59,0.00,,,0.00,TxWx,2018-01-19 07:58:00,